sensor_id;sensor_type;location;lat;lon;timestamp;pressure;altitude;pressure_sealevel;temperature;humidity
26487;BME280;14425;56.136;40.360;2023-02-22T00:00:37;98003.72;;;-10.49;51.42
26487;BME280;14425;56.136;40.360;2023-02-22T00:03:10;98001.13;;;-10.21;51.80
26487;BME280;14425;56.136;40.360;2023-02-22T00:05:37;98003.78;;;-10.66;51.89
26487;BME280;14425;56.136;40.360;2023-02-22T00:08:06;98012.81;;;-10.86;52.49
26487;BME280;14425;56.136;40.360;2023-02-22T00:10:36;98020.22;;;-10.41;52.67
26487;BME280;14425;56.136;40.360;2023-02-22T00:13:07;98015.72;;;-10.26;50.92
26487;BME280;14425;56.136;40.360;2023-02-22T00:15:33;98015.66;;;-10.17;51.32
26487;BME280;14425;56.136;40.360;2023-02-22T00:17:59;98018.34;;;-10.05;50.13
26487;BME280;14425;56.136;40.360;2023-02-22T00:20:25;98015.56;;;-11.10;51.54
26487;BME280;14425;56.136;40.360;2023-02-22T00:22:52;98026.97;;;-11.93;52.59
26487;BME280;14425;56.136;40.360;2023-02-22T00:25:20;98027.81;;;-12.36;55.55
26487;BME280;14425;56.136;40.360;2023-02-22T00:27:46;98041.41;;;-11.89;55.49
26487;BME280;14425;56.136;40.360;2023-02-22T00:30:20;98029.94;;;-11.25;53.16
26487;BME280;14425;56.136;40.360;2023-02-22T00:32:48;98029.25;;;-11.50;53.26
26487;BME280;14425;56.136;40.360;2023-02-22T00:35:16;98033.94;;;-10.91;54.21
26487;BME280;14425;56.136;40.360;2023-02-22T00:37:42;98033.88;;;-10.73;51.67
26487;BME280;14425;56.136;40.360;2023-02-22T00:40:09;98041.75;;;-12.12;53.26
26487;BME280;14425;56.136;40.360;2023-02-22T00:42:35;98038.47;;;-11.49;53.94
26487;BME280;14425;56.136;40.360;2023-02-22T00:45:01;98043.06;;;-11.09;53.79
26487;BME280;14425;56.136;40.360;2023-02-22T00:47:30;98043.78;;;-11.01;53.28
26487;BME280;14425;56.136;40.360;2023-02-22T00:49:56;98046.22;;;-12.34;54.21
26487;BME280;14425;56.136;40.360;2023-02-22T00:52:21;98056.06;;;-12.60;57.04
26487;BME280;14425;56.136;40.360;2023-02-22T00:54:47;98047.91;;;-12.50;56.72
26487;BME280;14425;56.136;40.360;2023-02-22T00:57:12;98052.41;;;-12.21;55.51
26487;BME280;14425;56.136;40.360;2023-02-22T00:59:38;98043.69;;;-10.75;53.92
26487;BME280;14425;56.136;40.360;2023-02-22T01:02:03;98042.44;;;-10.98;54.13
26487;BME280;14425;56.136;40.360;2023-02-22T01:04:29;98047.91;;;-10.37;51.55
26487;BME280;14425;56.136;40.360;2023-02-22T01:06:54;98058.63;;;-11.29;52.36
26487;BME280;14425;56.136;40.360;2023-02-22T01:09:20;98060.13;;;-11.48;52.82
26487;BME280;14425;56.136;40.360;2023-02-22T01:11:47;98063.00;;;-11.18;53.55
26487;BME280;14425;56.136;40.360;2023-02-22T01:14:19;98061.56;;;-11.33;52.14
26487;BME280;14425;56.136;40.360;2023-02-22T01:16:45;98077.41;;;-12.95;54.73
26487;BME280;14425;56.136;40.360;2023-02-22T01:19:10;98077.34;;;-12.79;57.35
26487;BME280;14425;56.136;40.360;2023-02-22T01:21:39;98069.06;;;-12.71;55.44
26487;BME280;14425;56.136;40.360;2023-02-22T01:24:05;98075.63;;;-12.30;56.32
26487;BME280;14425;56.136;40.360;2023-02-22T01:26:30;98081.59;;;-13.03;56.55
26487;BME280;14425;56.136;40.360;2023-02-22T01:28:56;98081.81;;;-12.59;56.92
26487;BME280;14425;56.136;40.360;2023-02-22T01:31:21;98083.81;;;-11.26;54.15
26487;BME280;14425;56.136;40.360;2023-02-22T01:33:49;98078.41;;;-11.39;53.50
26487;BME280;14425;56.136;40.360;2023-02-22T01:36:18;98088.50;;;-12.07;53.71
26487;BME280;14425;56.136;40.360;2023-02-22T01:38:44;98094.91;;;-11.22;53.82
26487;BME280;14425;56.136;40.360;2023-02-22T01:41:11;98091.31;;;-10.35;51.04
26487;BME280;14425;56.136;40.360;2023-02-22T01:43:37;98098.31;;;-11.22;51.04
26487;BME280;14425;56.136;40.360;2023-02-22T01:46:22;98103.84;;;-12.62;53.96
26487;BME280;14425;56.136;40.360;2023-02-22T01:48:55;98110.66;;;-12.35;55.55
26487;BME280;14425;56.136;40.360;2023-02-22T01:51:25;98111.78;;;-11.37;53.46
26487;BME280;14425;56.136;40.360;2023-02-22T01:53:53;98119.56;;;-11.52;53.70
26487;BME280;14425;56.136;40.360;2023-02-22T01:56:21;98111.78;;;-11.28;52.71
26487;BME280;14425;56.136;40.360;2023-02-22T01:59:08;98116.28;;;-10.98;50.62
26487;BME280;14425;56.136;40.360;2023-02-22T02:01:35;98117.34;;;-11.13;52.37
26487;BME280;14425;56.136;40.360;2023-02-22T02:04:09;98129.94;;;-11.38;52.68
26487;BME280;14425;56.136;40.360;2023-02-22T02:06:36;98116.06;;;-10.73;51.76
26487;BME280;14425;56.136;40.360;2023-02-22T02:11:43;98127.31;;;-11.40;52.50
26487;BME280;14425;56.136;40.360;2023-02-22T02:14:10;98119.38;;;-10.28;52.07
26487;BME280;14425;56.136;40.360;2023-02-22T02:16:48;98128.00;;;-9.96;49.76
26487;BME280;14425;56.136;40.360;2023-02-22T02:19:48;98137.84;;;-11.60;50.61
26487;BME280;14425;56.136;40.360;2023-02-22T02:22:26;98138.44;;;-11.19;52.18
26487;BME280;14425;56.136;40.360;2023-02-22T02:25:40;98143.84;;;-11.23;52.00
26487;BME280;14425;56.136;40.360;2023-02-22T02:39:42;98164.94;;;-11.37;52.81
26487;BME280;14425;56.136;40.360;2023-02-22T02:42:16;98164.59;;;-10.79;51.83
26487;BME280;14425;56.136;40.360;2023-02-22T02:45:08;98172.41;;;-12.14;51.57
26487;BME280;14425;56.136;40.360;2023-02-22T02:47:39;98178.34;;;-12.62;54.45
26487;BME280;14425;56.136;40.360;2023-02-22T02:50:22;98173.91;;;-11.90;54.06
26487;BME280;14425;56.136;40.360;2023-02-22T02:52:52;98170.47;;;-11.39;53.13
26487;BME280;14425;56.136;40.360;2023-02-22T02:55:19;98178.13;;;-12.15;52.54
26487;BME280;14425;56.136;40.360;2023-02-22T02:57:45;98190.44;;;-12.41;55.57
26487;BME280;14425;56.136;40.360;2023-02-22T03:00:15;98190.75;;;-11.96;53.42
26487;BME280;14425;56.136;40.360;2023-02-22T03:08:49;98179.00;;;-12.14;53.47
26487;BME280;14425;56.136;40.360;2023-02-22T03:11:27;98191.47;;;-12.39;54.45
26487;BME280;14425;56.136;40.360;2023-02-22T03:24:57;98207.94;;;-12.73;57.36
26487;BME280;14425;56.136;40.360;2023-02-22T03:27:32;98217.59;;;-13.64;56.16
26487;BME280;14425;56.136;40.360;2023-02-22T03:30:05;98220.72;;;-14.36;59.80
26487;BME280;14425;56.136;40.360;2023-02-22T03:32:36;98211.34;;;-13.77;59.80
26487;BME280;14425;56.136;40.360;2023-02-22T03:35:08;98225.66;;;-14.13;57.72
26487;BME280;14425;56.136;40.360;2023-02-22T03:37:39;98236.44;;;-14.82;59.33
26487;BME280;14425;56.136;40.360;2023-02-22T03:40:09;98230.16;;;-14.48;60.14
26487;BME280;14425;56.136;40.360;2023-02-22T03:42:42;98233.06;;;-13.51;59.08
26487;BME280;14425;56.136;40.360;2023-02-22T03:45:10;98233.22;;;-14.51;59.19
26487;BME280;14425;56.136;40.360;2023-02-22T03:47:41;98236.22;;;-14.76;60.43
26487;BME280;14425;56.136;40.360;2023-02-22T03:50:14;98253.41;;;-15.22;61.34
26487;BME280;14425;56.136;40.360;2023-02-22T03:52:41;98238.41;;;-14.86;61.43
26487;BME280;14425;56.136;40.360;2023-02-22T03:55:09;98242.25;;;-15.12;62.12
26487;BME280;14425;56.136;40.360;2023-02-22T03:57:38;98232.59;;;-14.18;60.67
26487;BME280;14425;56.136;40.360;2023-02-22T04:00:09;98236.06;;;-14.78;59.61
26487;BME280;14425;56.136;40.360;2023-02-22T04:02:35;98240.81;;;-14.72;61.67
26487;BME280;14425;56.136;40.360;2023-02-22T04:05:01;98242.56;;;-14.71;61.15
26487;BME280;14425;56.136;40.360;2023-02-22T04:07:27;98256.78;;;-15.29;62.04
26487;BME280;14425;56.136;40.360;2023-02-22T04:09:52;98258.72;;;-15.34;62.33
26487;BME280;14425;56.136;40.360;2023-02-22T04:12:18;98262.13;;;-14.96;62.47
26487;BME280;14425;56.136;40.360;2023-02-22T04:14:43;98259.03;;;-14.02;61.60
26487;BME280;14425;56.136;40.360;2023-02-22T04:17:09;98266.94;;;-14.44;59.49
26487;BME280;14425;56.136;40.360;2023-02-22T04:19:34;98270.63;;;-14.94;59.63
26487;BME280;14425;56.136;40.360;2023-02-22T04:22:00;98275.13;;;-14.52;61.38
26487;BME280;14425;56.136;40.360;2023-02-22T04:24:25;98284.31;;;-14.21;58.86
26487;BME280;14425;56.136;40.360;2023-02-22T04:26:51;98284.97;;;-13.52;58.50
26487;BME280;14425;56.136;40.360;2023-02-22T04:29:17;98284.13;;;-13.60;57.21
26487;BME280;14425;56.136;40.360;2023-02-22T04:31:42;98282.56;;;-13.44;57.66
26487;BME280;14425;56.136;40.360;2023-02-22T04:34:08;98288.91;;;-12.82;55.71
26487;BME280;14425;56.136;40.360;2023-02-22T04:36:33;98286.78;;;-12.54;54.83
26487;BME280;14425;56.136;40.360;2023-02-22T04:38:59;98306.72;;;-12.21;54.56
26487;BME280;14425;56.136;40.360;2023-02-22T04:41:24;98299.63;;;-11.67;53.01
26487;BME280;14425;56.136;40.360;2023-02-22T04:43:50;98308.78;;;-11.92;51.50
26487;BME280;14425;56.136;40.360;2023-02-22T04:46:16;98305.41;;;-11.93;51.16
26487;BME280;14425;56.136;40.360;2023-02-22T04:48:42;98315.84;;;-12.13;52.15
26487;BME280;14425;56.136;40.360;2023-02-22T04:51:07;98307.91;;;-12.42;52.24
26487;BME280;14425;56.136;40.360;2023-02-22T04:53:34;98314.88;;;-12.87;53.17
26487;BME280;14425;56.136;40.360;2023-02-22T04:55:59;98316.34;;;-12.49;52.99
26487;BME280;14425;56.136;40.360;2023-02-22T04:58:26;98319.84;;;-13.03;55.50
26487;BME280;14425;56.136;40.360;2023-02-22T05:00:51;98326.88;;;-13.86;55.60
26487;BME280;14425;56.136;40.360;2023-02-22T05:03:17;98324.72;;;-13.44;56.33
26487;BME280;14425;56.136;40.360;2023-02-22T05:05:43;98322.97;;;-12.97;56.66
26487;BME280;14425;56.136;40.360;2023-02-22T05:08:08;98325.13;;;-13.16;55.56
26487;BME280;14425;56.136;40.360;2023-02-22T05:10:34;98331.59;;;-14.03;56.14
26487;BME280;14425;56.136;40.360;2023-02-22T05:12:59;98335.75;;;-14.18;57.87
26487;BME280;14425;56.136;40.360;2023-02-22T05:15:25;98345.47;;;-14.73;59.53
26487;BME280;14425;56.136;40.360;2023-02-22T05:17:51;98348.00;;;-14.95;59.91
26487;BME280;14425;56.136;40.360;2023-02-22T05:20:25;98340.44;;;-14.28;59.40
26487;BME280;14425;56.136;40.360;2023-02-22T05:22:55;98352.47;;;-14.32;59.23
26487;BME280;14425;56.136;40.360;2023-02-22T05:25:21;98352.31;;;-14.33;58.79
26487;BME280;14425;56.136;40.360;2023-02-22T05:27:55;98355.16;;;-13.37;59.05
26487;BME280;14425;56.136;40.360;2023-02-22T05:30:24;98365.56;;;-12.85;54.84
26487;BME280;14425;56.136;40.360;2023-02-22T05:32:50;98369.84;;;-12.03;54.23
26487;BME280;14425;56.136;40.360;2023-02-22T05:35:17;98363.31;;;-12.59;52.61
26487;BME280;14425;56.136;40.360;2023-02-22T05:37:43;98370.06;;;-12.58;54.68
26487;BME280;14425;56.136;40.360;2023-02-22T05:40:09;98375.78;;;-13.69;53.76
26487;BME280;14425;56.136;40.360;2023-02-22T05:42:34;98381.06;;;-13.43;56.24
26487;BME280;14425;56.136;40.360;2023-02-22T05:45:00;98380.19;;;-13.11;54.95
26487;BME280;14425;56.136;40.360;2023-02-22T05:47:26;98395.72;;;-14.14;55.59
26487;BME280;14425;56.136;40.360;2023-02-22T05:49:51;98390.63;;;-13.92;57.33
26487;BME280;14425;56.136;40.360;2023-02-22T05:52:17;98387.09;;;-13.48;56.30
26487;BME280;14425;56.136;40.360;2023-02-22T05:54:43;98395.16;;;-13.81;55.59
26487;BME280;14425;56.136;40.360;2023-02-22T05:57:08;98393.66;;;-13.48;56.13
26487;BME280;14425;56.136;40.360;2023-02-22T05:59:34;98394.78;;;-12.35;55.68
26487;BME280;14425;56.136;40.360;2023-02-22T06:01:59;98391.91;;;-11.06;49.96
26487;BME280;14425;56.136;40.360;2023-02-22T06:04:25;98403.00;;;-12.11;51.46
26487;BME280;14425;56.136;40.360;2023-02-22T06:06:50;98411.75;;;-12.78;53.32
26487;BME280;14425;56.136;40.360;2023-02-22T06:09:16;98413.66;;;-11.63;51.99
26487;BME280;14425;56.136;40.360;2023-02-22T06:11:41;98403.38;;;-9.77;48.99
26487;BME280;14425;56.136;40.360;2023-02-22T06:14:07;98409.81;;;-9.25;46.45
26487;BME280;14425;56.136;40.360;2023-02-22T06:16:32;98406.16;;;-9.74;46.21
26487;BME280;14425;56.136;40.360;2023-02-22T06:18:58;98410.28;;;-9.92;47.42
26487;BME280;14425;56.136;40.360;2023-02-22T06:21:25;98424.03;;;-11.00;48.69
26487;BME280;14425;56.136;40.360;2023-02-22T06:23:51;98417.06;;;-9.00;47.14
26487;BME280;14425;56.136;40.360;2023-02-22T06:26:17;98413.75;;;-8.82;45.67
26487;BME280;14425;56.136;40.360;2023-02-22T06:28:44;98422.94;;;-11.44;47.32
26487;BME280;14425;56.136;40.360;2023-02-22T06:31:10;98426.16;;;-10.00;47.93
26487;BME280;14425;56.136;40.360;2023-02-22T06:33:35;98425.25;;;-9.83;47.45
26487;BME280;14425;56.136;40.360;2023-02-22T06:36:01;98427.88;;;-9.81;46.37
26487;BME280;14425;56.136;40.360;2023-02-22T06:38:26;98435.94;;;-9.13;46.78
26487;BME280;14425;56.136;40.360;2023-02-22T06:40:52;98426.78;;;-8.76;44.94
26487;BME280;14425;56.136;40.360;2023-02-22T06:43:20;98433.84;;;-9.44;46.12
26487;BME280;14425;56.136;40.360;2023-02-22T06:45:46;98434.97;;;-10.04;45.50
26487;BME280;14425;56.136;40.360;2023-02-22T06:48:12;98428.56;;;-9.56;46.62
26487;BME280;14425;56.136;40.360;2023-02-22T06:50:37;98429.16;;;-8.49;45.41
26487;BME280;14425;56.136;40.360;2023-02-22T06:53:03;98432.75;;;-7.89;43.20
26487;BME280;14425;56.136;40.360;2023-02-22T06:55:30;98434.41;;;-8.08;43.45
26487;BME280;14425;56.136;40.360;2023-02-22T06:57:57;98439.53;;;-8.07;43.18
26487;BME280;14425;56.136;40.360;2023-02-22T07:00:24;98439.19;;;-8.01;43.42
26487;BME280;14425;56.136;40.360;2023-02-22T07:02:51;98444.38;;;-7.70;42.42
26487;BME280;14425;56.136;40.360;2023-02-22T07:05:19;98450.13;;;-8.94;43.11
26487;BME280;14425;56.136;40.360;2023-02-22T07:07:46;98445.06;;;-10.19;45.54
26487;BME280;14425;56.136;40.360;2023-02-22T07:12:46;98448.44;;;-8.85;43.79
26487;BME280;14425;56.136;40.360;2023-02-22T07:15:12;98443.66;;;-7.88;44.10
26487;BME280;14425;56.136;40.360;2023-02-22T07:17:38;98448.13;;;-7.94;42.41
26487;BME280;14425;56.136;40.360;2023-02-22T07:20:06;98455.84;;;-8.02;43.24
26487;BME280;14425;56.136;40.360;2023-02-22T07:22:32;98449.31;;;-7.81;44.39
26487;BME280;14425;56.136;40.360;2023-02-22T07:24:57;98448.56;;;-6.81;42.78
26487;BME280;14425;56.136;40.360;2023-02-22T07:27:24;98452.03;;;-8.26;43.29
26487;BME280;14425;56.136;40.360;2023-02-22T07:29:50;98460.63;;;-8.32;44.83
26487;BME280;14425;56.136;40.360;2023-02-22T07:32:15;98463.47;;;-8.94;44.78
26487;BME280;14425;56.136;40.360;2023-02-22T07:34:41;98463.47;;;-7.22;43.36
26487;BME280;14425;56.136;40.360;2023-02-22T07:37:07;98457.56;;;-7.63;42.33
26487;BME280;14425;56.136;40.360;2023-02-22T07:39:33;98471.38;;;-7.28;44.92
26487;BME280;14425;56.136;40.360;2023-02-22T07:41:59;98463.47;;;-6.83;43.34
26487;BME280;14425;56.136;40.360;2023-02-22T07:44:24;98460.47;;;-5.97;41.67
26487;BME280;14425;56.136;40.360;2023-02-22T07:46:50;98471.72;;;-6.94;40.44
26487;BME280;14425;56.136;40.360;2023-02-22T07:49:16;98468.69;;;-5.67;40.28
26487;BME280;14425;56.136;40.360;2023-02-22T07:51:42;98466.34;;;-5.11;39.86
26487;BME280;14425;56.136;40.360;2023-02-22T07:54:07;98470.78;;;-5.18;38.71
26487;BME280;14425;56.136;40.360;2023-02-22T07:56:33;98496.50;;;-6.97;39.61
26487;BME280;14425;56.136;40.360;2023-02-22T07:58:58;98486.50;;;-6.37;44.56
26487;BME280;14425;56.136;40.360;2023-02-22T08:01:25;98482.38;;;-3.75;42.22
26487;BME280;14425;56.136;40.360;2023-02-22T08:03:51;98483.28;;;-4.20;40.14
26487;BME280;14425;56.136;40.360;2023-02-22T08:06:18;98480.22;;;-4.72;38.82
26487;BME280;14425;56.136;40.360;2023-02-22T08:08:45;98483.59;;;-6.01;39.57
26487;BME280;14425;56.136;40.360;2023-02-22T08:11:11;98490.56;;;-5.86;41.06
26487;BME280;14425;56.136;40.360;2023-02-22T08:13:38;98490.03;;;-5.72;39.72
26487;BME280;14425;56.136;40.360;2023-02-22T08:16:04;98496.09;;;-5.27;41.30
26487;BME280;14425;56.136;40.360;2023-02-22T08:18:29;98497.88;;;-3.80;39.42
26487;BME280;14425;56.136;40.360;2023-02-22T08:20:55;98495.28;;;-3.35;38.29
26487;BME280;14425;56.136;40.360;2023-02-22T08:23:22;98495.28;;;-2.62;36.69
26487;BME280;14425;56.136;40.360;2023-02-22T08:25:49;98503.53;;;-2.76;36.48
26487;BME280;14425;56.136;40.360;2023-02-22T08:28:16;98497.31;;;-1.81;35.63
26487;BME280;14425;56.136;40.360;2023-02-22T08:30:44;98493.69;;;-1.84;34.29
26487;BME280;14425;56.136;40.360;2023-02-22T08:33:11;98496.44;;;-1.68;35.38
26487;BME280;14425;56.136;40.360;2023-02-22T08:35:38;98500.56;;;-2.34;34.13
26487;BME280;14425;56.136;40.360;2023-02-22T08:38:06;98505.69;;;-1.55;34.44
26487;BME280;14425;56.136;40.360;2023-02-22T08:40:35;98505.59;;;-1.03;34.06
26487;BME280;14425;56.136;40.360;2023-02-22T08:43:02;98504.63;;;-1.72;33.46
26487;BME280;14425;56.136;40.360;2023-02-22T08:45:28;98510.09;;;-1.53;34.33
26487;BME280;14425;56.136;40.360;2023-02-22T08:47:54;98510.53;;;0.07;33.21
26487;BME280;14425;56.136;40.360;2023-02-22T08:50:25;98507.63;;;0.15;32.93
26487;BME280;14425;56.136;40.360;2023-02-22T08:52:53;98503.16;;;0.26;32.23
26487;BME280;14425;56.136;40.360;2023-02-22T08:55:24;98495.56;;;1.99;31.02
26487;BME280;14425;56.136;40.360;2023-02-22T08:57:50;98496.19;;;1.95;31.26
26487;BME280;14425;56.136;40.360;2023-02-22T09:00:17;98504.00;;;1.18;30.66
26487;BME280;14425;56.136;40.360;2023-02-22T09:02:43;98489.91;;;0.91;29.84
26487;BME280;14425;56.136;40.360;2023-02-22T09:05:08;98513.81;;;-1.86;32.47
26487;BME280;14425;56.136;40.360;2023-02-22T09:07:34;98498.69;;;-2.11;32.92
26487;BME280;14425;56.136;40.360;2023-02-22T09:10:00;98509.69;;;-1.05;34.07
26487;BME280;14425;56.136;40.360;2023-02-22T09:12:25;98500.69;;;-0.45;33.00
26487;BME280;14425;56.136;40.360;2023-02-22T09:14:51;98496.25;;;-0.49;33.21
26487;BME280;14425;56.136;40.360;2023-02-22T09:17:16;98499.53;;;-0.92;32.25
26487;BME280;14425;56.136;40.360;2023-02-22T09:19:42;98502.97;;;-1.32;33.14
26487;BME280;14425;56.136;40.360;2023-02-22T09:22:10;98492.78;;;-0.22;32.75
26487;BME280;14425;56.136;40.360;2023-02-22T09:24:35;98508.63;;;-1.49;33.02
26487;BME280;14425;56.136;40.360;2023-02-22T09:27:01;98498.88;;;-0.48;32.53
26487;BME280;14425;56.136;40.360;2023-02-22T09:29:29;98490.78;;;-0.27;32.93
26487;BME280;14425;56.136;40.360;2023-02-22T09:31:54;98495.25;;;-0.93;31.85
26487;BME280;14425;56.136;40.360;2023-02-22T09:34:21;98492.22;;;-0.17;33.06
26487;BME280;14425;56.136;40.360;2023-02-22T09:36:52;98487.84;;;0.69;31.79
26487;BME280;14425;56.136;40.360;2023-02-22T09:39:18;98488.97;;;0.74;31.49
26487;BME280;14425;56.136;40.360;2023-02-22T09:46:52;98480.56;;;1.71;31.36
26487;BME280;14425;56.136;40.360;2023-02-22T09:49:26;98479.59;;;1.53;29.69
26487;BME280;14425;56.136;40.360;2023-02-22T09:54:28;98480.31;;;1.02;31.35
26487;BME280;14425;56.136;40.360;2023-02-22T09:57:04;98480.72;;;1.58;31.16
26487;BME280;14425;56.136;40.360;2023-02-22T09:59:39;98489.97;;;1.24;30.67
26487;BME280;14425;56.136;40.360;2023-02-22T10:02:31;98507.16;;;-0.07;30.59
26487;BME280;14425;56.136;40.360;2023-02-22T10:05:09;98498.66;;;1.94;30.92
26487;BME280;14425;56.136;40.360;2023-02-22T10:07:46;98502.28;;;2.50;30.23
26487;BME280;14425;56.136;40.360;2023-02-22T10:10:16;98499.47;;;2.27;29.42
26487;BME280;14425;56.136;40.360;2023-02-22T10:20:53;98498.63;;;3.54;29.13
26487;BME280;14425;56.136;40.360;2023-02-22T10:23:23;98507.19;;;2.12;28.90
26487;BME280;14425;56.136;40.360;2023-02-22T10:26:01;98510.66;;;2.65;30.42
26487;BME280;14425;56.136;40.360;2023-02-22T10:28:37;98499.00;;;3.24;29.22
26487;BME280;14425;56.136;40.360;2023-02-22T10:31:07;98515.38;;;2.93;29.08
26487;BME280;14425;56.136;40.360;2023-02-22T10:33:39;98501.44;;;3.80;32.78
26487;BME280;14425;56.136;40.360;2023-02-22T10:36:15;98502.53;;;3.85;31.56
26487;BME280;14425;56.136;40.360;2023-02-22T10:38:49;98509.78;;;4.78;35.28
26487;BME280;14425;56.136;40.360;2023-02-22T10:41:40;98516.72;;;4.59;35.13
26487;BME280;14425;56.136;40.360;2023-02-22T10:44:09;98512.22;;;5.41;36.38
26487;BME280;14425;56.136;40.360;2023-02-22T10:46:35;98528.13;;;4.47;31.76
26487;BME280;14425;56.136;40.360;2023-02-22T10:49:03;98521.59;;;4.53;35.55
26487;BME280;14425;56.136;40.360;2023-02-22T10:51:32;98530.53;;;4.43;32.89
26487;BME280;14425;56.136;40.360;2023-02-22T10:54:19;98527.81;;;3.05;33.01
26487;BME280;14425;56.136;40.360;2023-02-22T10:56:49;98535.59;;;3.44;33.83
26487;BME280;14425;56.136;40.360;2023-02-22T11:01:57;98540.16;;;4.70;34.35
26487;BME280;14425;56.136;40.360;2023-02-22T11:04:23;98550.78;;;1.85;33.39
26487;BME280;14425;56.136;40.360;2023-02-22T11:07:08;98548.09;;;3.02;33.38
26487;BME280;14425;56.136;40.360;2023-02-22T11:12:35;98547.28;;;4.17;35.82
26487;BME280;14425;56.136;40.360;2023-02-22T11:17:42;98557.44;;;4.16;36.26
26487;BME280;14425;56.136;40.360;2023-02-22T11:20:18;98562.44;;;3.56;35.62
26487;BME280;14425;56.136;40.360;2023-02-22T11:22:49;98561.25;;;4.06;36.99
26487;BME280;14425;56.136;40.360;2023-02-22T11:25:19;98555.81;;;3.98;36.36
26487;BME280;14425;56.136;40.360;2023-02-22T11:27:46;98577.59;;;3.35;35.81
26487;BME280;14425;56.136;40.360;2023-02-22T11:33:04;98579.81;;;2.56;36.72
26487;BME280;14425;56.136;40.360;2023-02-22T11:35:57;98604.22;;;-1.43;36.04
26487;BME280;14425;56.136;40.360;2023-02-22T11:38:34;98603.09;;;-0.55;34.13
26487;BME280;14425;56.136;40.360;2023-02-22T11:41:11;98597.81;;;1.15;33.75
26487;BME280;14425;56.136;40.360;2023-02-22T11:43:49;98610.25;;;-1.41;33.39
26487;BME280;14425;56.136;40.360;2023-02-22T11:46:29;98624.09;;;-2.37;35.21
26487;BME280;14425;56.136;40.360;2023-02-22T11:49:01;98634.84;;;-4.46;36.68
26487;BME280;14425;56.136;40.360;2023-02-22T11:51:47;98633.63;;;-3.39;38.66
26487;BME280;14425;56.136;40.360;2023-02-22T11:59:37;98623.31;;;-3.88;35.31
26487;BME280;14425;56.136;40.360;2023-02-22T12:02:45;98638.84;;;-3.82;39.70
26487;BME280;14425;56.136;40.360;2023-02-22T12:05:39;98632.44;;;-4.22;37.25
26487;BME280;14425;56.136;40.360;2023-02-22T12:11:08;98637.84;;;-2.81;35.92
26487;BME280;14425;56.136;40.360;2023-02-22T12:21:52;98628.53;;;-2.09;34.45
26487;BME280;14425;56.136;40.360;2023-02-22T12:24:23;98621.66;;;-1.98;37.61
26487;BME280;14425;56.136;40.360;2023-02-22T12:26:55;98632.31;;;-4.24;37.53
26487;BME280;14425;56.136;40.360;2023-02-22T12:29:34;98638.84;;;-3.82;38.87
26487;BME280;14425;56.136;40.360;2023-02-22T12:32:08;98633.25;;;-4.98;38.04
26487;BME280;14425;56.136;40.360;2023-02-22T12:34:45;98631.47;;;-3.68;39.60
26487;BME280;14425;56.136;40.360;2023-02-22T12:37:38;98614.41;;;-1.17;39.60
26487;BME280;14425;56.136;40.360;2023-02-22T12:42:48;98618.91;;;1.14;35.07
26487;BME280;14425;56.136;40.360;2023-02-22T12:45:38;98621.50;;;1.76;33.55
26487;BME280;14425;56.136;40.360;2023-02-22T12:48:20;98616.75;;;2.15;33.66
26487;BME280;14425;56.136;40.360;2023-02-22T12:50:54;98622.63;;;1.98;37.10
26487;BME280;14425;56.136;40.360;2023-02-22T12:53:34;98615.38;;;3.61;36.73
26487;BME280;14425;56.136;40.360;2023-02-22T12:56:24;98616.59;;;4.26;34.17
26487;BME280;14425;56.136;40.360;2023-02-22T13:01:51;98612.59;;;2.34;34.07
26487;BME280;14425;56.136;40.360;2023-02-22T13:04:18;98628.44;;;1.18;38.31
26487;BME280;14425;56.136;40.360;2023-02-22T13:15:27;98636.16;;;0.89;36.46
26487;BME280;14425;56.136;40.360;2023-02-22T13:20:43;98635.94;;;0.85;35.51
26487;BME280;14425;56.136;40.360;2023-02-22T13:23:32;98640.28;;;2.44;36.62
26487;BME280;14425;56.136;40.360;2023-02-22T13:26:14;98637.06;;;0.90;38.79
26487;BME280;14425;56.136;40.360;2023-02-22T13:29:29;98648.06;;;0.76;37.05
26487;BME280;14425;56.136;40.360;2023-02-22T13:31:53;98651.25;;;0.86;36.20
26487;BME280;14425;56.136;40.360;2023-02-22T13:37:18;98653.47;;;1.41;38.54
26487;BME280;14425;56.136;40.360;2023-02-22T13:42:48;98650.84;;;2.19;35.28
26487;BME280;14425;56.136;40.360;2023-02-22T13:51:49;98659.13;;;2.48;36.04
26487;BME280;14425;56.136;40.360;2023-02-22T13:54:17;98672.81;;;0.80;37.26
26487;BME280;14425;56.136;40.360;2023-02-22T13:56:47;98667.78;;;1.71;37.29
26487;BME280;14425;56.136;40.360;2023-02-22T13:59:40;98678.38;;;0.16;36.13
26487;BME280;14425;56.136;40.360;2023-02-22T14:02:12;98677.78;;;1.53;38.27
26487;BME280;14425;56.136;40.360;2023-02-22T14:04:51;98675.75;;;0.43;38.54
26487;BME280;14425;56.136;40.360;2023-02-22T14:17:34;98692.31;;;-0.72;38.82
26487;BME280;14425;56.136;40.360;2023-02-22T14:22:43;98702.59;;;0.11;39.05
26487;BME280;14425;56.136;40.360;2023-02-22T14:25:32;98702.84;;;-1.18;40.38
26487;BME280;14425;56.136;40.360;2023-02-22T14:27:59;98717.34;;;-2.03;42.45
26487;BME280;14425;56.136;40.360;2023-02-22T14:30:34;98706.91;;;-0.82;45.19
26487;BME280;14425;56.136;40.360;2023-02-22T14:33:00;98713.66;;;-1.46;41.22
26487;BME280;14425;56.136;40.360;2023-02-22T14:35:35;98708.59;;;-1.21;41.66
26487;BME280;14425;56.136;40.360;2023-02-22T14:38:04;98707.38;;;-1.76;38.60
26487;BME280;14425;56.136;40.360;2023-02-22T14:40:33;98719.00;;;-2.03;42.00
26487;BME280;14425;56.136;40.360;2023-02-22T14:43:05;98717.28;;;-1.79;44.23
26487;BME280;14425;56.136;40.360;2023-02-22T14:45:36;98727.81;;;-2.10;42.09
26487;BME280;14425;56.136;40.360;2023-02-22T14:50:59;98721.25;;;-0.69;43.63
26487;BME280;14425;56.136;40.360;2023-02-22T14:53:43;98727.88;;;-0.71;40.42
26487;BME280;14425;56.136;40.360;2023-02-22T14:56:14;98731.22;;;-0.97;39.98
26487;BME280;14425;56.136;40.360;2023-02-22T14:58:48;98735.84;;;-0.65;41.64
26487;BME280;14425;56.136;40.360;2023-02-22T15:01:20;98743.31;;;-1.18;41.90
26487;BME280;14425;56.136;40.360;2023-02-22T15:03:46;98749.56;;;-1.38;40.69